createdAt,value
2022-08-11T00:02:29.469Z,21.56
2022-08-11T00:04:58.659Z,21.74
2022-08-11T00:07:27.946Z,21.75
2022-08-11T00:09:57.127Z,21.71
2022-08-11T00:12:25.748Z,21.74
2022-08-11T00:14:59.876Z,21.75
2022-08-11T00:17:30.815Z,21.60
2022-08-11T00:20:14.883Z,21.53
2022-08-11T00:22:46.413Z,21.72
2022-08-11T00:25:18.182Z,21.74
2022-08-11T00:27:48.474Z,21.63
2022-08-11T00:30:18.399Z,21.68
2022-08-11T00:32:55.209Z,21.80
2022-08-11T00:35:52.127Z,21.95
2022-08-11T00:38:16.642Z,21.69
2022-08-11T00:40:48.405Z,21.58
2022-08-11T00:43:22.195Z,21.50
2022-08-11T00:46:12.210Z,21.78
2022-08-11T00:48:46.775Z,21.77
2022-08-11T00:51:24.672Z,21.74
2022-08-11T00:54:01.921Z,21.65
2022-08-11T00:56:58.194Z,21.77
2022-08-11T00:59:58.831Z,21.61
2022-08-11T01:02:49.526Z,21.60
2022-08-11T01:05:51.593Z,21.52
2022-08-11T01:08:48.140Z,21.52
2022-08-11T01:11:27.077Z,21.24
2022-08-11T01:14:37.762Z,21.51
2022-08-11T01:17:14.284Z,21.39
2022-08-11T01:20:45.417Z,21.28
2022-08-11T01:23:12.686Z,21.17
2022-08-11T01:26:28.234Z,21.26
2022-08-11T01:29:06.474Z,21.11
2022-08-11T01:32:06.439Z,21.29
2022-08-11T01:35:19.180Z,21.26
2022-08-11T01:38:22.200Z,21.07
2022-08-11T01:41:48.772Z,20.93
2022-08-11T01:44:41.605Z,21.23
2022-08-11T01:47:52.601Z,21.25
2022-08-11T01:50:38.548Z,21.28
2022-08-11T01:53:14.202Z,21.22
2022-08-11T01:55:55.171Z,21.12
2022-08-11T01:58:43.571Z,21.41
2022-08-11T02:01:25.573Z,21.37
2022-08-11T02:03:58.338Z,21.11
2022-08-11T02:06:46.943Z,21.23
2022-08-11T02:09:21.920Z,21.13
2022-08-11T02:11:50.779Z,21.05
2022-08-11T02:14:25.971Z,21.19
2022-08-11T02:17:01.723Z,21.09
2022-08-11T02:19:57.318Z,21.35
2022-08-11T02:22:50.021Z,21.13
2022-08-11T02:25:25.767Z,21.12
2022-08-11T02:28:00.789Z,21.29
2022-08-11T02:30:33.741Z,21.19
2022-08-11T02:33:24.885Z,21.18
2022-08-11T02:36:00.261Z,21.12
2022-08-11T02:38:33.733Z,20.99
2022-08-11T02:41:30.504Z,21.18
2022-08-11T02:44:25.682Z,21.10
2022-08-11T02:47:04.121Z,20.88
2022-08-11T02:50:02.507Z,20.88
2022-08-11T02:52:45.478Z,21.02
2022-08-11T02:55:48.924Z,20.92
2022-08-11T02:58:15.959Z,21.13
2022-08-11T03:00:48.769Z,21.12
2022-08-11T03:03:22.258Z,20.81
2022-08-11T03:05:57.818Z,20.95
2022-08-11T03:08:42.199Z,20.97
2022-08-11T03:11:34.023Z,20.67
2022-08-11T03:14:31.647Z,20.71
2022-08-11T03:17:05.754Z,20.89
2022-08-11T03:19:46.857Z,20.75
2022-08-11T03:22:22.095Z,20.70
2022-08-11T03:25:02.542Z,20.74
2022-08-11T03:27:40.686Z,20.52
2022-08-11T03:30:14.104Z,20.62
2022-08-11T03:33:11.339Z,20.65
2022-08-11T03:35:43.138Z,20.70
2022-08-11T03:38:14.353Z,20.62
2022-08-11T03:42:01.319Z,20.50
2022-08-11T03:44:08.036Z,20.38
2022-08-11T03:46:45.336Z,20.30
2022-08-11T03:49:26.851Z,20.21
2022-08-11T03:51:58.486Z,20.31
2022-08-11T03:54:32.964Z,20.36
2022-08-11T03:57:43.548Z,20.41
2022-08-11T04:00:23.405Z,20.35
2022-08-11T04:03:21.176Z,20.31
2022-08-11T04:06:15.042Z,20.26
2022-08-11T04:09:15.108Z,20.26
2022-08-11T04:12:06.550Z,20.21
2022-08-11T04:15:02.080Z,20.12
2022-08-11T04:17:52.532Z,20.24
2022-08-11T04:20:33.699Z,20.29
2022-08-11T04:24:36.797Z,20.47
2022-08-11T04:27:37.195Z,20.59
2022-08-11T04:30:12.187Z,20.83
2022-08-11T04:33:17.807Z,21.42
2022-08-11T04:35:55.088Z,22.10
2022-08-11T04:38:54.550Z,22.54
2022-08-11T04:42:01.095Z,22.71
2022-08-11T04:45:11.962Z,23.68
2022-08-11T04:48:17.405Z,24.10
2022-08-11T04:51:17.784Z,24.49
2022-08-11T04:54:10.933Z,24.23
2022-08-11T04:56:58.959Z,25.01
2022-08-11T05:00:10.158Z,25.69
2022-08-11T05:03:15.750Z,25.76
2022-08-11T05:06:09.021Z,26.07
2022-08-11T05:09:02.446Z,26.36
2022-08-11T05:12:03.674Z,26.11
2022-08-11T05:14:52.432Z,25.89
2022-08-11T05:17:56.682Z,25.91
2022-08-11T05:20:44.637Z,25.36
2022-08-11T05:23:31.861Z,25.26
2022-08-11T05:26:46.877Z,25.78
2022-08-11T05:29:46.435Z,25.62
2022-08-11T05:32:34.558Z,25.13
2022-08-11T05:35:05.222Z,24.95
2022-08-11T05:37:38.112Z,24.85
2022-08-11T05:40:30.713Z,25.34
2022-08-11T05:43:19.210Z,25.21
2022-08-11T05:46:15.036Z,23.89
2022-08-11T05:49:01.996Z,24.67
2022-08-11T05:51:55.311Z,24.08
2022-08-11T05:54:42.318Z,23.34
2022-08-11T05:57:48.807Z,23.53
2022-08-11T06:00:10.391Z,23.64
2022-08-11T06:02:41.556Z,23.33
2022-08-11T06:05:10.570Z,23.46
2022-08-11T06:07:49.220Z,23.36
2022-08-11T06:10:31.023Z,23.48
2022-08-11T06:13:02.060Z,23.75
2022-08-11T06:15:32.874Z,23.35
2022-08-11T06:18:02.930Z,23.71
2022-08-11T06:20:36.567Z,23.77
2022-08-11T06:23:07.399Z,23.64
2022-08-11T06:25:37.337Z,23.97
2022-08-11T06:28:08.537Z,23.97
2022-08-11T06:30:40.724Z,24.09
2022-08-11T06:33:11.106Z,24.21
2022-08-11T06:35:40.577Z,24.17
2022-08-11T06:38:11.993Z,24.29
2022-08-11T06:41:08.314Z,25.21
2022-08-11T06:43:55.374Z,24.67
2022-08-11T06:46:28.636Z,24.80
2022-08-11T06:48:57.176Z,24.87
2022-08-11T06:51:24.811Z,24.51
2022-08-11T06:54:04.575Z,24.52
2022-08-11T06:57:18.635Z,24.62
2022-08-11T07:00:02.428Z,24.83
2022-08-11T07:02:34.554Z,24.96
2022-08-11T07:05:08.354Z,25.75
2022-08-11T07:08:35.787Z,25.49
2022-08-11T07:11:41.430Z,25.53
2022-08-11T07:14:27.396Z,25.34
2022-08-11T07:16:57.585Z,25.46
2022-08-11T07:19:47.022Z,25.47
2022-08-11T07:22:33.766Z,25.61
2022-08-11T07:25:21.246Z,25.82
2022-08-11T07:28:10.606Z,26.09
2022-08-11T07:30:41.881Z,26.51
2022-08-11T07:34:05.731Z,26.64
2022-08-11T07:36:05.135Z,27.04
2022-08-11T07:38:47.428Z,26.31
2022-08-11T07:41:17.733Z,26.62
2022-08-11T07:43:49.196Z,26.58
2022-08-11T07:46:36.056Z,26.21
2022-08-11T07:49:26.176Z,26.73
2022-08-11T07:52:12.638Z,26.55
2022-08-11T07:54:41.991Z,27.02
2022-08-11T07:58:14.667Z,27.08
2022-08-11T08:00:37.382Z,26.68
2022-08-11T08:03:24.496Z,26.66
2022-08-11T08:06:15.362Z,27.23
2022-08-11T08:09:17.573Z,27.28
2022-08-11T08:12:03.861Z,26.74
2022-08-11T08:14:50.618Z,27.14
2022-08-11T08:17:37.274Z,27.00
2022-08-11T08:20:07.888Z,27.45
2022-08-11T08:22:39.748Z,26.94
2022-08-11T08:25:10.602Z,27.08
2022-08-11T08:27:39.453Z,27.69
2022-08-11T08:30:26.291Z,27.62
2022-08-11T08:32:57.670Z,27.33
2022-08-11T08:35:30.654Z,28.22
2022-08-11T08:38:02.305Z,28.79
2022-08-11T08:40:31.031Z,27.91
2022-08-11T08:43:05.118Z,28.59
2022-08-11T08:45:37.735Z,28.37
2022-08-11T08:48:10.333Z,28.09
2022-08-11T08:51:01.785Z,27.87
2022-08-11T08:53:35.245Z,28.20
2022-08-11T08:56:04.461Z,28.59
2022-08-11T08:58:34.721Z,28.08
2022-08-11T09:01:02.845Z,28.50
2022-08-11T09:04:07.108Z,27.92
2022-08-11T09:06:20.651Z,28.34
2022-08-11T09:08:53.652Z,28.66
2022-08-11T09:11:41.581Z,28.47
2022-08-11T09:14:14.942Z,28.81
2022-08-11T09:16:44.290Z,28.77
2022-08-11T09:19:17.675Z,28.71
2022-08-11T09:22:08.386Z,28.77
2022-08-11T09:24:56.390Z,29.04
2022-08-11T09:27:25.299Z,29.06
2022-08-11T09:29:54.205Z,29.10
2022-08-11T09:32:23.220Z,29.68
2022-08-11T09:34:54.089Z,29.22
2022-08-11T09:37:54.069Z,30.05
2022-08-11T09:40:32.375Z,29.52
2022-08-11T09:43:21.663Z,30.13
2022-08-11T09:45:51.898Z,29.40
2022-08-11T09:48:20.845Z,29.71
2022-08-11T09:50:52.631Z,30.39
2022-08-11T09:53:36.642Z,29.87
2022-08-11T09:56:30.128Z,29.56
2022-08-11T09:58:59.506Z,29.94
2022-08-11T10:01:31.705Z,29.95
2022-08-11T10:04:02.895Z,29.75
2022-08-11T10:06:54.502Z,29.47
2022-08-11T10:09:25.675Z,30.11
2022-08-11T10:11:57.929Z,29.38
2022-08-11T10:14:45.270Z,29.83
2022-08-11T10:17:14.930Z,30.11
2022-08-11T10:20:01.958Z,29.77
2022-08-11T10:22:52.936Z,29.98
2022-08-11T10:25:39.315Z,30.23
2022-08-11T10:28:32.973Z,30.72
2022-08-11T10:31:16.973Z,30.46
2022-08-11T10:34:01.915Z,29.86
2022-08-11T10:36:31.820Z,30.05
2022-08-11T10:39:01.710Z,30.36
2022-08-11T10:42:06.804Z,30.84
2022-08-11T10:44:40.141Z,30.11
2022-08-11T10:47:26.687Z,30.19
2022-08-11T10:50:09.626Z,30.33
2022-08-11T10:52:56.408Z,30.60
2022-08-11T10:55:42.912Z,30.97
2022-08-11T10:58:29.275Z,30.59
2022-08-11T11:01:00.695Z,30.88
2022-08-11T11:03:32.174Z,31.39
2022-08-11T11:06:28.728Z,31.10
2022-08-11T11:09:03.762Z,30.80
2022-08-11T11:11:54.092Z,30.82
2022-08-11T11:14:46.161Z,30.76
2022-08-11T11:17:44.190Z,31.31
2022-08-11T11:20:35.806Z,32.27
2022-08-11T11:23:06.429Z,31.13
2022-08-11T11:25:40.380Z,30.98
2022-08-11T11:28:34.617Z,30.44
2022-08-11T11:31:15.784Z,31.61
2022-08-11T11:34:12.186Z,31.73
2022-08-11T11:36:47.059Z,31.64
2022-08-11T11:39:19.309Z,31.42
2022-08-11T11:41:48.453Z,31.65
2022-08-11T11:44:17.103Z,31.14
2022-08-11T11:46:46.673Z,31.80
2022-08-11T11:49:18.606Z,31.73
2022-08-11T11:51:50.279Z,32.09
2022-08-11T11:54:19.076Z,32.52
2022-08-11T11:56:47.440Z,31.19
2022-08-11T11:59:34.005Z,31.52
2022-08-11T12:02:11.841Z,32.09
2022-08-11T12:04:45.188Z,32.42
2022-08-11T12:07:30.998Z,32.50
2022-08-11T12:09:59.706Z,31.66
2022-08-11T12:12:45.492Z,32.15
2022-08-11T12:15:13.935Z,31.80
2022-08-11T12:17:42.305Z,31.71
2022-08-11T12:20:31.954Z,32.46
2022-08-11T12:23:16.507Z,31.53
2022-08-11T12:26:26.431Z,32.37
2022-08-11T12:28:51.895Z,32.51
2022-08-11T12:31:25.982Z,32.77
2022-08-11T12:33:56.154Z,32.13
2022-08-11T12:36:25.656Z,32.99
2022-08-11T12:38:55.090Z,33.00
2022-08-11T12:41:42.067Z,32.45
2022-08-11T12:44:28.620Z,32.80
2022-08-11T12:46:58.998Z,32.42
2022-08-11T12:49:47.366Z,32.50
2022-08-11T12:52:21.658Z,31.91
2022-08-11T12:54:58.954Z,32.84
2022-08-11T12:57:49.655Z,32.81
2022-08-11T13:00:36.446Z,32.38
2022-08-11T13:03:24.519Z,32.36
2022-08-11T13:05:55.713Z,33.31
2022-08-11T13:08:26.677Z,33.91
2022-08-11T13:11:15.124Z,33.35
2022-08-11T13:13:54.066Z,31.88
2022-08-11T13:16:27.789Z,32.57
2022-08-11T13:18:56.904Z,33.63
2022-08-11T13:21:25.519Z,33.63
2022-08-11T13:24:01.691Z,33.50
2022-08-11T13:26:46.645Z,32.80
2022-08-11T13:29:20.625Z,32.36
2022-08-11T13:31:49.600Z,32.97
2022-08-11T13:34:18.485Z,33.57
2022-08-11T13:36:50.053Z,33.58
2022-08-11T13:39:19.579Z,33.49
2022-08-11T13:41:49.671Z,33.26
2022-08-11T13:44:24.734Z,32.82
2022-08-11T13:46:55.278Z,32.79
2022-08-11T13:49:24.056Z,33.52
2022-08-11T13:51:52.844Z,32.61
2022-08-11T13:54:24.662Z,33.27
2022-08-11T13:56:55.349Z,32.72
2022-08-11T13:59:29.869Z,33.36
2022-08-11T14:02:22.052Z,33.20
2022-08-11T14:04:55.445Z,32.91
2022-08-11T14:07:25.884Z,34.01
2022-08-11T14:09:58.958Z,33.79
2022-08-11T14:12:46.663Z,32.85
2022-08-11T14:15:19.993Z,32.52
2022-08-11T14:17:52.254Z,32.38
2022-08-11T14:20:38.296Z,33.51
2022-08-11T14:23:11.021Z,33.68
2022-08-11T14:26:03.759Z,33.75
2022-08-11T14:28:40.298Z,33.25
2022-08-11T14:31:14.711Z,33.24
2022-08-11T14:34:00.409Z,33.02
2022-08-11T14:36:34.022Z,32.42
2022-08-11T14:39:05.425Z,33.50
2022-08-11T14:42:10.151Z,32.93
2022-08-11T14:45:00.889Z,32.97
2022-08-11T14:47:29.470Z,33.01
2022-08-11T14:50:10.253Z,33.06
2022-08-11T14:52:45.743Z,33.67
2022-08-11T14:55:32.068Z,33.60
2022-08-11T14:58:02.448Z,33.30
2022-08-11T15:00:31.572Z,33.43
2022-08-11T15:03:12.080Z,33.37
2022-08-11T15:05:52.333Z,33.17
2022-08-11T15:08:46.642Z,33.76
2022-08-11T15:11:34.193Z,33.00
2022-08-11T15:14:06.494Z,32.66
2022-08-11T15:16:52.793Z,33.09
2022-08-11T15:19:22.099Z,33.33
2022-08-11T15:22:08.123Z,33.20
2022-08-11T15:24:37.363Z,33.16
2022-08-11T15:27:24.792Z,32.93
2022-08-11T15:30:20.935Z,33.10
2022-08-11T15:33:20.618Z,32.93
2022-08-11T15:36:06.495Z,33.39
2022-08-11T15:38:37.082Z,32.88
2022-08-11T15:41:23.936Z,31.95
2022-08-11T15:44:12.039Z,31.65
2022-08-11T15:46:43.850Z,31.83
2022-08-11T15:49:13.755Z,32.41
2022-08-11T15:51:54.399Z,31.87
2022-08-11T15:54:27.216Z,32.51
2022-08-11T15:56:57.478Z,31.96
2022-08-11T15:59:44.348Z,31.46
2022-08-11T16:02:34.041Z,31.35
2022-08-11T16:05:05.288Z,31.17
2022-08-11T16:07:36.932Z,32.24
2022-08-11T16:10:14.813Z,31.46
2022-08-11T16:13:18.132Z,31.11
2022-08-11T16:16:06.518Z,31.68
2022-08-11T16:18:43.018Z,32.06
2022-08-11T16:21:34.219Z,31.67
2022-08-11T16:24:06.139Z,31.40
2022-08-11T16:27:10.281Z,31.22
2022-08-11T16:29:28.160Z,31.60
2022-08-11T16:32:15.040Z,30.90
2022-08-11T16:35:03.586Z,31.10
2022-08-11T16:37:52.102Z,31.97
2022-08-11T16:40:22.688Z,31.34
2022-08-11T16:43:11.561Z,31.85
2022-08-11T16:45:58.882Z,31.20
2022-08-11T16:48:34.961Z,30.86
2022-08-11T16:51:08.295Z,31.01
2022-08-11T16:53:54.854Z,31.00
2022-08-11T16:56:33.933Z,31.00
2022-08-11T16:59:17.285Z,30.86
2022-08-11T17:01:53.011Z,30.81
2022-08-11T17:04:46.208Z,31.04
2022-08-11T17:07:41.690Z,31.06
2022-08-11T17:10:51.555Z,31.73
2022-08-11T17:13:26.851Z,31.74
2022-08-11T17:16:12.209Z,31.40
2022-08-11T17:18:51.624Z,32.00
2022-08-11T17:21:21.829Z,32.61
2022-08-11T17:23:55.069Z,32.58
2022-08-11T17:26:28.050Z,32.68
2022-08-11T17:29:00.573Z,32.48
2022-08-11T17:31:47.660Z,31.82
2022-08-11T17:34:34.086Z,32.79
2022-08-11T17:37:02.882Z,32.67
2022-08-11T17:39:33.036Z,32.50
2022-08-11T17:42:19.682Z,32.69
2022-08-11T17:45:06.737Z,32.44
2022-08-11T17:47:53.063Z,32.82
2022-08-11T17:50:22.452Z,32.43
2022-08-11T17:53:08.971Z,33.43
2022-08-11T17:55:58.197Z,32.38
2022-08-11T17:58:44.662Z,32.43
2022-08-11T18:01:13.808Z,32.15
2022-08-11T18:03:41.827Z,31.72
2022-08-11T18:06:22.520Z,32.22
2022-08-11T18:09:23.934Z,32.27
2022-08-11T18:12:13.150Z,30.87
2022-08-11T18:15:01.081Z,31.50
2022-08-11T18:17:47.874Z,30.80
2022-08-11T18:20:33.796Z,30.38
2022-08-11T18:23:46.546Z,29.48
2022-08-11T18:26:28.816Z,29.57
2022-08-11T18:29:16.358Z,28.69
2022-08-11T18:32:07.037Z,28.97
2022-08-11T18:34:56.567Z,28.37
2022-08-11T18:37:44.712Z,28.41
2022-08-11T18:40:35.158Z,28.52
2022-08-11T18:43:27.183Z,28.19
2022-08-11T18:46:18.489Z,27.82
2022-08-11T18:49:10.647Z,28.03
2022-08-11T18:52:00.209Z,27.67
2022-08-11T18:54:48.861Z,27.43
2022-08-11T18:57:49.887Z,27.49
2022-08-11T19:00:41.492Z,27.61
2022-08-11T19:03:30.377Z,27.53
2022-08-11T19:06:38.417Z,27.45
2022-08-11T19:09:27.427Z,27.34
2022-08-11T19:12:13.945Z,27.17
2022-08-11T19:15:00.434Z,27.05
2022-08-11T19:17:46.887Z,27.16
2022-08-11T19:20:36.815Z,27.41
2022-08-11T19:23:25.151Z,27.34
2022-08-11T19:26:12.020Z,27.28
2022-08-11T19:28:58.660Z,27.29
2022-08-11T19:31:45.810Z,27.23
2022-08-11T19:34:32.711Z,27.15
2022-08-11T19:37:24.427Z,26.89
2022-08-11T19:40:11.910Z,26.99
2022-08-11T19:42:59.327Z,26.70
2022-08-11T19:45:50.352Z,26.68
2022-08-11T19:48:39.284Z,26.65
2022-08-11T19:51:25.340Z,26.52
2022-08-11T19:54:13.148Z,26.22
2022-08-11T19:57:00.530Z,26.20
2022-08-11T19:59:47.203Z,25.98
2022-08-11T20:02:33.134Z,25.92
2022-08-11T20:05:19.004Z,25.86
2022-08-11T20:08:04.976Z,25.68
2022-08-11T20:10:53.678Z,25.53
2022-08-11T20:13:41.683Z,25.53
2022-08-11T20:16:30.152Z,25.41
2022-08-11T20:19:16.687Z,25.33
2022-08-11T20:22:07.916Z,25.30
2022-08-11T20:24:55.248Z,25.12
2022-08-11T20:27:44.131Z,25.10
2022-08-11T20:30:31.370Z,24.99
2022-08-11T20:33:17.518Z,25.20
2022-08-11T20:36:04.662Z,25.38
2022-08-11T20:38:51.738Z,25.32
2022-08-11T20:41:58.967Z,25.10
2022-08-11T20:44:45.994Z,25.12
2022-08-11T20:47:32.970Z,25.09
2022-08-11T20:50:41.013Z,25.01
2022-08-11T20:53:27.675Z,25.14
2022-08-11T20:56:14.124Z,24.97
2022-08-11T20:59:14.386Z,24.77
2022-08-11T21:02:10.012Z,24.70
2022-08-11T21:04:57.855Z,24.58
2022-08-11T21:07:55.187Z,24.50
2022-08-11T21:10:46.785Z,24.47
2022-08-11T21:13:33.386Z,24.34
2022-08-11T21:16:25.639Z,24.31
2022-08-11T21:19:18.262Z,24.27
2022-08-11T21:22:05.971Z,24.19
2022-08-11T21:24:53.079Z,23.91
2022-08-11T21:27:39.403Z,24.01
2022-08-11T21:30:26.520Z,24.09
2022-08-11T21:33:13.790Z,24.10
2022-08-11T21:36:02.613Z,23.86
2022-08-11T21:38:49.432Z,23.99
2022-08-11T21:41:35.883Z,24.07
2022-08-11T21:44:22.845Z,24.10
2022-08-11T21:47:09.061Z,23.95
2022-08-11T21:49:55.630Z,23.93
2022-08-11T21:52:43.339Z,23.97
2022-08-11T21:55:29.648Z,23.78
2022-08-11T21:58:16.274Z,23.61
2022-08-11T22:01:02.837Z,23.70
2022-08-11T22:03:50.349Z,23.59
2022-08-11T22:06:36.878Z,23.44
2022-08-11T22:09:24.134Z,23.08
2022-08-11T22:12:34.207Z,23.39
2022-08-11T22:15:15.710Z,23.39
2022-08-11T22:18:02.227Z,23.31
2022-08-11T22:20:48.654Z,23.24
2022-08-11T22:23:37.033Z,23.15
2022-08-11T22:26:25.018Z,22.97
2022-08-11T22:29:10.995Z,22.88
2022-08-11T22:31:57.778Z,22.82
2022-08-11T22:34:44.796Z,22.53
2022-08-11T22:37:39.689Z,22.54
2022-08-11T22:40:27.723Z,22.38
2022-08-11T22:43:15.399Z,22.30
2022-08-11T22:46:01.428Z,22.17
2022-08-11T22:48:48.889Z,22.33
2022-08-11T22:51:37.005Z,22.38
2022-08-11T22:54:23.908Z,22.32
2022-08-11T22:57:09.860Z,22.21
2022-08-11T22:59:57.683Z,22.25
2022-08-11T23:02:44.595Z,22.21
2022-08-11T23:05:32.483Z,22.13
2022-08-11T23:08:18.906Z,22.25
2022-08-11T23:11:05.369Z,22.23
2022-08-11T23:13:52.246Z,22.14
2022-08-11T23:16:40.113Z,22.14
2022-08-11T23:19:59.968Z,21.94
2022-08-11T23:22:43.841Z,22.08
2022-08-11T23:25:35.438Z,22.20
2022-08-11T23:28:21.958Z,22.24
2022-08-11T23:31:08.884Z,22.18
2022-08-11T23:33:59.317Z,22.01
2022-08-11T23:36:47.733Z,21.87
2022-08-11T23:39:34.597Z,21.59
2022-08-11T23:42:20.610Z,21.70
2022-08-11T23:45:09.545Z,21.64
2022-08-11T23:47:57.209Z,21.66
2022-08-11T23:50:45.324Z,21.67
2022-08-11T23:53:32.277Z,21.61
2022-08-11T23:56:21.716Z,21.66
2022-08-11T23:59:08.411Z,21.71
